createdAt,value
2022-12-27T00:03:53.857Z,6.80
2022-12-27T00:08:57.825Z,6.90
2022-12-27T00:14:01.344Z,7.00
2022-12-27T00:19:06.915Z,7.00
2022-12-27T00:24:11.241Z,7.00
2022-12-27T00:29:14.618Z,7.00
2022-12-27T00:34:20.472Z,7.00
2022-12-27T00:39:23.751Z,7.10
2022-12-27T00:44:27.023Z,7.20
2022-12-27T00:49:31.661Z,7.00
2022-12-27T00:54:34.986Z,6.90
2022-12-27T00:59:38.261Z,6.60
2022-12-27T01:04:42.892Z,6.30
2022-12-27T01:09:46.209Z,6.10
2022-12-27T01:14:49.535Z,5.90
2022-12-27T01:19:54.191Z,5.90
2022-12-27T01:24:57.612Z,5.80
2022-12-27T01:30:00.946Z,5.60
2022-12-27T01:35:06.302Z,5.50
2022-12-27T01:40:10.694Z,5.30
2022-12-27T01:45:16.976Z,5.30
2022-12-27T01:50:27.613Z,5.20
2022-12-27T01:55:37.500Z,5.20
2022-12-27T02:00:44.637Z,5.20
2022-12-27T02:05:50.955Z,5.20
2022-12-27T02:10:54.789Z,5.10
2022-12-27T02:15:58.148Z,4.90
2022-12-27T02:21:40.006Z,4.80
2022-12-27T02:26:56.738Z,4.80
2022-12-27T02:32:07.559Z,4.50
2022-12-27T02:37:13.365Z,4.70
2022-12-27T02:42:35.951Z,4.60
2022-12-27T02:47:58.103Z,4.60
2022-12-27T02:53:08.951Z,4.50
2022-12-27T02:58:27.099Z,4.40
2022-12-27T03:03:48.032Z,4.30
2022-12-27T03:08:56.677Z,4.10
2022-12-27T03:14:34.499Z,4.10
2022-12-27T03:20:01.774Z,4.00
2022-12-27T03:25:23.410Z,3.90
2022-12-27T03:30:40.651Z,3.90
2022-12-27T03:36:09.729Z,3.80
2022-12-27T03:41:34.532Z,3.70
2022-12-27T03:46:43.608Z,3.80
2022-12-27T03:51:52.232Z,3.60
2022-12-27T03:56:57.273Z,3.40
2022-12-27T04:02:02.563Z,3.40
2022-12-27T04:07:08.232Z,3.30
2022-12-27T04:12:29.045Z,3.20
2022-12-27T04:17:49.902Z,3.10
2022-12-27T04:23:12.173Z,3.00
2022-12-27T04:28:32.587Z,3.10
2022-12-27T04:33:53.507Z,2.90
2022-12-27T04:38:58.326Z,2.90
2022-12-27T04:44:19.283Z,2.90
2022-12-27T04:49:42.724Z,2.80
2022-12-27T04:54:59.453Z,2.70
2022-12-27T05:00:20.436Z,2.70
2022-12-27T05:05:24.112Z,2.60
2022-12-27T05:10:46.916Z,2.70
2022-12-27T05:15:50.562Z,2.50
2022-12-27T05:20:53.862Z,2.50
2022-12-27T05:25:58.560Z,2.40
2022-12-27T05:31:03.679Z,2.40
2022-12-27T05:36:08.250Z,2.20
2022-12-27T05:41:13.011Z,2.20
2022-12-27T05:46:17.636Z,2.10
2022-12-27T05:51:22.509Z,2.10
2022-12-27T05:56:27.184Z,2.10
2022-12-27T06:01:30.581Z,2.20
2022-12-27T06:06:35.594Z,2.20
2022-12-27T06:11:40.224Z,2.10
2022-12-27T06:16:43.571Z,2.10
2022-12-27T06:21:46.886Z,1.80
2022-12-27T06:26:51.497Z,1.80
2022-12-27T06:31:54.830Z,1.80
2022-12-27T06:36:58.116Z,1.80
2022-12-27T06:42:02.844Z,1.90
2022-12-27T06:47:06.221Z,2.00
2022-12-27T06:52:09.847Z,2.00
2022-12-27T06:57:14.571Z,2.00
2022-12-27T07:02:17.957Z,1.90
2022-12-27T07:07:21.498Z,1.80
2022-12-27T07:12:27.351Z,1.80
2022-12-27T07:17:32.843Z,1.80
2022-12-27T07:22:36.326Z,1.80
2022-12-27T07:27:40.967Z,1.90
2022-12-27T07:32:44.254Z,1.90
2022-12-27T07:37:47.473Z,2.00
2022-12-27T07:42:52.097Z,2.00
2022-12-27T07:47:55.476Z,2.10
2022-12-27T07:52:58.887Z,2.20
2022-12-27T07:58:03.572Z,2.40
2022-12-27T08:03:06.920Z,2.50
2022-12-27T08:08:12.506Z,2.80
2022-12-27T08:13:17.191Z,2.90
2022-12-27T08:18:21.629Z,2.90
2022-12-27T08:23:25.042Z,3.10
2022-12-27T08:28:31.628Z,3.10
2022-12-27T08:33:35.209Z,3.20
2022-12-27T08:38:38.447Z,3.40
2022-12-27T08:43:43.047Z,3.60
2022-12-27T08:48:48.632Z,4.00
2022-12-27T08:53:51.856Z,3.90
2022-12-27T08:58:56.463Z,1.10
2022-12-27T09:03:59.736Z,4.30
2022-12-27T09:09:02.960Z,4.60
2022-12-27T09:14:07.753Z,4.90
2022-12-27T09:19:11.683Z,4.70
2022-12-27T09:24:15.708Z,4.90
2022-12-27T09:29:20.335Z,5.20
2022-12-27T09:34:23.564Z,4.90
2022-12-27T09:39:26.790Z,5.10
2022-12-27T09:44:37.565Z,5.20
2022-12-27T09:49:44.454Z,5.20
2022-12-27T09:55:04.191Z,5.50
2022-12-27T10:00:16.773Z,5.50
2022-12-27T10:05:22.849Z,5.50
2022-12-27T10:10:38.351Z,5.60
2022-12-27T10:15:50.776Z,5.80
2022-12-27T10:21:06.693Z,5.80
2022-12-27T10:26:15.096Z,6.10
2022-12-27T10:31:23.360Z,6.40
2022-12-27T10:36:28.988Z,9.00
2022-12-27T10:41:40.854Z,7.20
2022-12-27T10:46:52.228Z,6.60
2022-12-27T10:51:58.062Z,6.40
2022-12-27T10:57:19.199Z,6.50
2022-12-27T11:02:23.974Z,6.60
2022-12-27T11:07:31.511Z,9.70
2022-12-27T11:12:36.262Z,6.60
2022-12-27T11:17:43.709Z,6.30
2022-12-27T11:22:49.684Z,6.30
2022-12-27T11:27:55.786Z,6.30
2022-12-27T11:33:04.916Z,6.10
2022-12-27T11:38:16.351Z,6.20
2022-12-27T11:43:22.695Z,6.10
2022-12-27T11:48:31.236Z,6.10
2022-12-27T11:54:06.776Z,6.40
2022-12-27T11:59:40.823Z,6.20
2022-12-27T12:05:23.614Z,6.40
2022-12-27T12:10:36.389Z,6.40
2022-12-27T12:16:05.225Z,6.40
2022-12-27T12:21:25.648Z,6.50
2022-12-27T12:26:36.168Z,6.40
2022-12-27T12:32:18.133Z,6.40
2022-12-27T12:37:33.051Z,6.40
2022-12-27T12:42:46.188Z,6.50
2022-12-27T12:48:08.759Z,6.60
2022-12-27T12:53:36.246Z,6.50
2022-12-27T12:58:53.848Z,6.40
2022-12-27T13:04:09.374Z,6.50
2022-12-27T13:09:24.752Z,6.60
2022-12-27T13:14:48.584Z,6.60
2022-12-27T13:20:16.366Z,6.70
2022-12-27T13:25:29.443Z,6.60
2022-12-27T13:30:42.580Z,6.60
2022-12-27T13:36:08.119Z,6.40
2022-12-27T13:41:35.205Z,6.50
2022-12-27T13:46:58.435Z,6.40
2022-12-27T13:52:13.013Z,6.50
2022-12-27T13:57:31.782Z,6.50
2022-12-27T14:03:07.432Z,6.40
2022-12-27T14:08:20.039Z,6.50
2022-12-27T14:13:29.330Z,6.40
2022-12-27T14:18:47.679Z,6.20
2022-12-27T14:24:05.213Z,6.10
2022-12-27T14:29:36.447Z,6.10
2022-12-27T14:35:13.411Z,5.90
2022-12-27T14:40:58.243Z,5.80
2022-12-27T14:46:38.362Z,5.70
2022-12-27T14:52:06.099Z,5.60
2022-12-27T14:57:30.126Z,5.40
2022-12-27T15:02:52.229Z,5.30
2022-12-27T15:08:21.107Z,5.30
2022-12-27T15:13:38.993Z,5.20
2022-12-27T15:18:57.595Z,5.00
2022-12-27T15:24:07.215Z,4.80
2022-12-27T15:29:25.367Z,4.70
2022-12-27T15:34:54.422Z,4.70
2022-12-27T15:39:58.123Z,4.30
2022-12-27T15:45:10.825Z,4.20
2022-12-27T15:50:32.384Z,4.20
2022-12-27T15:56:08.470Z,4.00
2022-12-27T16:01:28.960Z,3.90
2022-12-27T16:06:52.627Z,3.90
2022-12-27T16:12:03.234Z,3.80
2022-12-27T16:17:31.206Z,3.50
2022-12-27T16:22:39.261Z,3.20
2022-12-27T16:27:44.574Z,3.00
2022-12-27T16:32:51.564Z,2.80
2022-12-27T16:37:57.071Z,2.90
2022-12-27T16:43:42.397Z,2.80
2022-12-27T16:49:12.891Z,2.70
2022-12-27T16:54:27.751Z,2.60
2022-12-27T16:59:56.446Z,2.40
2022-12-27T17:05:03.391Z,2.30
2022-12-27T17:10:36.267Z,2.50
2022-12-27T17:15:49.410Z,2.30
2022-12-27T17:21:02.258Z,2.60
2022-12-27T17:26:24.800Z,2.60
2022-12-27T17:31:35.435Z,2.70
2022-12-27T17:36:54.612Z,2.90
2022-12-27T17:42:26.645Z,2.90
2022-12-27T17:47:55.306Z,2.90
2022-12-27T17:53:39.691Z,2.80
2022-12-27T17:58:43.001Z,2.90
2022-12-27T18:03:48.608Z,2.60
2022-12-27T18:08:53.573Z,2.50
2022-12-27T18:13:59.125Z,2.40
2022-12-27T18:19:03.202Z,2.30
2022-12-27T18:24:24.940Z,2.00
2022-12-27T18:29:28.245Z,2.00
2022-12-27T18:34:37.043Z,2.00
2022-12-27T18:39:47.923Z,1.90
2022-12-27T18:44:54.154Z,2.00
2022-12-27T18:49:59.788Z,2.00
2022-12-27T18:55:17.699Z,2.00
2022-12-27T19:00:24.447Z,1.80
2022-12-27T19:05:30.916Z,1.70
2022-12-27T19:10:35.800Z,5.50
2022-12-27T19:15:44.988Z,1.40
2022-12-27T19:20:55.553Z,1.60
2022-12-27T19:26:06.495Z,1.50
2022-12-27T19:31:21.997Z,1.40
2022-12-27T19:36:28.810Z,1.20
2022-12-27T19:41:33.454Z,1.00
2022-12-27T19:46:36.798Z,1.40
2022-12-27T19:51:41.919Z,0.90
2022-12-27T19:56:46.975Z,0.90
2022-12-27T20:01:50.958Z,0.70
2022-12-27T20:06:55.538Z,0.70
2022-12-27T20:12:00.287Z,0.30
2022-12-27T20:17:03.614Z,0.30
2022-12-27T20:22:07.082Z,0.30
2022-12-27T20:27:11.792Z,0.30
2022-12-27T20:32:15.089Z,0.30
2022-12-27T20:37:24.125Z,0.30
2022-12-27T20:42:29.267Z,0.50
2022-12-27T20:47:32.588Z,0.40
2022-12-27T20:52:38.540Z,0.30
2022-12-27T20:57:43.334Z,0.30
2022-12-27T21:02:47.733Z,0.40
2022-12-27T21:07:52.612Z,0.60
2022-12-27T21:12:57.247Z,0.60
2022-12-27T21:18:00.630Z,0.30
2022-12-27T21:23:03.885Z,0.20
2022-12-27T21:28:08.551Z,0.50
2022-12-27T21:33:11.839Z,0.20
2022-12-27T21:38:15.287Z,0.20
2022-12-27T21:43:19.943Z,0.00
2022-12-27T21:48:23.654Z,-0.10
2022-12-27T21:53:26.910Z,-0.20
2022-12-27T21:58:32.846Z,-0.20
2022-12-27T22:03:37.242Z,-0.20
2022-12-27T22:08:41.411Z,-0.10
2022-12-27T22:13:46.334Z,-0.20
2022-12-27T22:18:50.469Z,-0.30
2022-12-27T22:23:55.555Z,-0.30
2022-12-27T22:29:00.259Z,-0.30
2022-12-27T22:34:06.625Z,-0.30
2022-12-27T22:39:10.034Z,-0.20
2022-12-27T22:44:16.117Z,-0.30
2022-12-27T22:49:19.635Z,-0.40
2022-12-27T22:55:03.009Z,-0.50
2022-12-27T22:59:47.763Z,-0.30
2022-12-27T23:04:51.087Z,-0.40
2022-12-27T23:09:54.385Z,-0.30
2022-12-27T23:14:59.002Z,-0.40
2022-12-27T23:20:02.370Z,-0.50
2022-12-27T23:25:06.447Z,-0.40
2022-12-27T23:30:13.145Z,-0.60
2022-12-27T23:35:16.571Z,-0.60
2022-12-27T23:40:19.788Z,-0.50
2022-12-27T23:45:24.534Z,-0.50
2022-12-27T23:50:27.786Z,-0.60
2022-12-27T23:55:31.041Z,-0.60
